sensor_id;sensor_type;location;lat;lon;timestamp;temperature;humidity
7196;DHT22;3639;51.308;5.624;2024-01-07T00:01:49;2.00;99.90
7196;DHT22;3639;51.308;5.624;2024-01-07T00:04:15;1.90;99.90
7196;DHT22;3639;51.308;5.624;2024-01-07T00:06:41;2.00;99.90
7196;DHT22;3639;51.308;5.624;2024-01-07T00:09:06;1.90;99.90
7196;DHT22;3639;51.308;5.624;2024-01-07T00:11:32;1.90;99.90
7196;DHT22;3639;51.308;5.624;2024-01-07T00:13:57;1.90;99.90
7196;DHT22;3639;51.308;5.624;2024-01-07T00:16:23;2.00;99.90
7196;DHT22;3639;51.308;5.624;2024-01-07T00:18:49;2.00;99.90
7196;DHT22;3639;51.308;5.624;2024-01-07T00:21:15;2.00;99.90
7196;DHT22;3639;51.308;5.624;2024-01-07T00:23:40;2.00;99.90
7196;DHT22;3639;51.308;5.624;2024-01-07T00:26:06;2.00;99.90
7196;DHT22;3639;51.308;5.624;2024-01-07T00:28:32;2.00;99.90
7196;DHT22;3639;51.308;5.624;2024-01-07T00:30:57;1.90;99.90
7196;DHT22;3639;51.308;5.624;2024-01-07T00:33:23;1.90;99.90
7196;DHT22;3639;51.308;5.624;2024-01-07T00:35:49;1.90;99.90
7196;DHT22;3639;51.308;5.624;2024-01-07T00:38:14;1.90;99.90
7196;DHT22;3639;51.308;5.624;2024-01-07T00:40:40;1.90;99.90
7196;DHT22;3639;51.308;5.624;2024-01-07T00:43:05;1.90;99.90
7196;DHT22;3639;51.308;5.624;2024-01-07T00:45:31;1.90;99.90
7196;DHT22;3639;51.308;5.624;2024-01-07T00:47:56;1.90;99.90
7196;DHT22;3639;51.308;5.624;2024-01-07T00:50:22;2.00;99.90
7196;DHT22;3639;51.308;5.624;2024-01-07T00:52:47;1.90;99.90
7196;DHT22;3639;51.308;5.624;2024-01-07T00:55:13;2.00;99.90
7196;DHT22;3639;51.308;5.624;2024-01-07T00:57:39;2.00;99.90
7196;DHT22;3639;51.308;5.624;2024-01-07T01:00:05;2.00;99.90
7196;DHT22;3639;51.308;5.624;2024-01-07T01:02:31;2.00;99.90
7196;DHT22;3639;51.308;5.624;2024-01-07T01:04:57;2.00;99.90
7196;DHT22;3639;51.308;5.624;2024-01-07T01:07:22;2.00;99.90
7196;DHT22;3639;51.308;5.624;2024-01-07T01:09:48;2.00;99.90
7196;DHT22;3639;51.308;5.624;2024-01-07T01:12:14;2.00;99.90
7196;DHT22;3639;51.308;5.624;2024-01-07T01:14:40;2.00;99.90
7196;DHT22;3639;51.308;5.624;2024-01-07T01:17:05;2.00;99.90
7196;DHT22;3639;51.308;5.624;2024-01-07T01:19:31;2.00;99.90
7196;DHT22;3639;51.308;5.624;2024-01-07T01:21:57;2.00;99.90
7196;DHT22;3639;51.308;5.624;2024-01-07T01:24:22;2.00;99.90
7196;DHT22;3639;51.308;5.624;2024-01-07T01:26:48;2.00;99.90
7196;DHT22;3639;51.308;5.624;2024-01-07T01:29:13;2.00;99.90
7196;DHT22;3639;51.308;5.624;2024-01-07T01:31:39;2.00;99.90
7196;DHT22;3639;51.308;5.624;2024-01-07T01:34:04;2.00;99.90
7196;DHT22;3639;51.308;5.624;2024-01-07T01:36:33;2.10;99.90
7196;DHT22;3639;51.308;5.624;2024-01-07T01:38:58;2.00;99.90
7196;DHT22;3639;51.308;5.624;2024-01-07T01:41:24;2.00;99.90
7196;DHT22;3639;51.308;5.624;2024-01-07T01:43:49;2.00;99.90
7196;DHT22;3639;51.308;5.624;2024-01-07T01:46:15;1.90;99.90
7196;DHT22;3639;51.308;5.624;2024-01-07T01:48:41;1.90;99.90
7196;DHT22;3639;51.308;5.624;2024-01-07T01:51:07;1.90;99.90
7196;DHT22;3639;51.308;5.624;2024-01-07T01:53:33;2.00;99.90
7196;DHT22;3639;51.308;5.624;2024-01-07T01:56:01;2.00;99.90
7196;DHT22;3639;51.308;5.624;2024-01-07T01:58:28;2.00;99.90
7196;DHT22;3639;51.308;5.624;2024-01-07T02:00:55;2.00;99.90
7196;DHT22;3639;51.308;5.624;2024-01-07T02:03:20;1.90;99.90
7196;DHT22;3639;51.308;5.624;2024-01-07T02:05:48;1.90;99.90
7196;DHT22;3639;51.308;5.624;2024-01-07T02:08:14;1.90;99.90
7196;DHT22;3639;51.308;5.624;2024-01-07T02:10:39;1.90;99.90
7196;DHT22;3639;51.308;5.624;2024-01-07T02:13:05;1.90;99.90
7196;DHT22;3639;51.308;5.624;2024-01-07T02:15:31;1.90;99.90
7196;DHT22;3639;51.308;5.624;2024-01-07T02:17:56;1.90;99.90
7196;DHT22;3639;51.308;5.624;2024-01-07T02:20:23;1.90;99.90
7196;DHT22;3639;51.308;5.624;2024-01-07T02:22:48;1.80;99.90
7196;DHT22;3639;51.308;5.624;2024-01-07T02:25:14;1.90;99.90
7196;DHT22;3639;51.308;5.624;2024-01-07T02:27:40;1.90;99.90
7196;DHT22;3639;51.308;5.624;2024-01-07T02:30:06;1.80;99.90
7196;DHT22;3639;51.308;5.624;2024-01-07T02:32:31;1.80;99.90
7196;DHT22;3639;51.308;5.624;2024-01-07T02:35:00;1.80;99.90
7196;DHT22;3639;51.308;5.624;2024-01-07T02:37:25;1.80;99.90
7196;DHT22;3639;51.308;5.624;2024-01-07T02:39:51;1.80;99.90
7196;DHT22;3639;51.308;5.624;2024-01-07T02:42:17;1.80;99.90
7196;DHT22;3639;51.308;5.624;2024-01-07T02:44:42;1.80;99.90
7196;DHT22;3639;51.308;5.624;2024-01-07T02:47:08;1.80;99.90
7196;DHT22;3639;51.308;5.624;2024-01-07T02:49:33;1.80;99.90
7196;DHT22;3639;51.308;5.624;2024-01-07T02:51:59;1.80;99.90
7196;DHT22;3639;51.308;5.624;2024-01-07T02:54:25;1.80;99.90
7196;DHT22;3639;51.308;5.624;2024-01-07T02:56:50;1.80;99.90
7196;DHT22;3639;51.308;5.624;2024-01-07T02:59:16;1.90;99.90
7196;DHT22;3639;51.308;5.624;2024-01-07T03:01:41;1.80;99.90
7196;DHT22;3639;51.308;5.624;2024-01-07T03:04:12;1.80;99.90
7196;DHT22;3639;51.308;5.624;2024-01-07T03:06:37;1.90;99.90
7196;DHT22;3639;51.308;5.624;2024-01-07T03:09:03;1.80;99.90
7196;DHT22;3639;51.308;5.624;2024-01-07T03:11:29;1.80;99.90
7196;DHT22;3639;51.308;5.624;2024-01-07T03:13:56;1.80;99.90
7196;DHT22;3639;51.308;5.624;2024-01-07T03:16:23;1.80;99.90
7196;DHT22;3639;51.308;5.624;2024-01-07T03:18:49;1.80;99.90
7196;DHT22;3639;51.308;5.624;2024-01-07T03:21:23;1.80;99.90
7196;DHT22;3639;51.308;5.624;2024-01-07T03:23:50;1.80;99.90
7196;DHT22;3639;51.308;5.624;2024-01-07T03:26:17;1.70;99.90
7196;DHT22;3639;51.308;5.624;2024-01-07T03:28:42;1.80;99.90
7196;DHT22;3639;51.308;5.624;2024-01-07T03:31:10;1.80;99.90
7196;DHT22;3639;51.308;5.624;2024-01-07T03:33:37;1.80;99.90
7196;DHT22;3639;51.308;5.624;2024-01-07T03:36:11;1.80;99.90
7196;DHT22;3639;51.308;5.624;2024-01-07T03:38:38;1.80;99.90
7196;DHT22;3639;51.308;5.624;2024-01-07T03:41:04;1.80;99.90
7196;DHT22;3639;51.308;5.624;2024-01-07T03:43:29;1.80;99.90
7196;DHT22;3639;51.308;5.624;2024-01-07T03:45:55;1.70;99.90
7196;DHT22;3639;51.308;5.624;2024-01-07T03:48:21;1.80;99.90
7196;DHT22;3639;51.308;5.624;2024-01-07T03:50:46;1.80;99.90
7196;DHT22;3639;51.308;5.624;2024-01-07T03:53:12;1.70;99.90
7196;DHT22;3639;51.308;5.624;2024-01-07T03:55:38;1.70;99.90
7196;DHT22;3639;51.308;5.624;2024-01-07T03:58:04;1.70;99.90
7196;DHT22;3639;51.308;5.624;2024-01-07T04:00:31;1.60;99.90
7196;DHT22;3639;51.308;5.624;2024-01-07T04:02:56;1.70;99.90
7196;DHT22;3639;51.308;5.624;2024-01-07T04:05:22;1.70;99.90
7196;DHT22;3639;51.308;5.624;2024-01-07T04:07:48;1.60;99.90
7196;DHT22;3639;51.308;5.624;2024-01-07T04:10:14;1.60;99.90
7196;DHT22;3639;51.308;5.624;2024-01-07T04:12:40;1.60;99.90
7196;DHT22;3639;51.308;5.624;2024-01-07T04:15:06;1.60;99.90
7196;DHT22;3639;51.308;5.624;2024-01-07T04:17:31;1.70;99.90
7196;DHT22;3639;51.308;5.624;2024-01-07T04:19:57;1.60;99.90
7196;DHT22;3639;51.308;5.624;2024-01-07T04:22:23;1.60;99.90
7196;DHT22;3639;51.308;5.624;2024-01-07T04:24:48;1.50;99.90
7196;DHT22;3639;51.308;5.624;2024-01-07T04:27:14;1.60;99.90
7196;DHT22;3639;51.308;5.624;2024-01-07T04:29:39;1.50;99.90
7196;DHT22;3639;51.308;5.624;2024-01-07T04:32:05;1.50;99.90
7196;DHT22;3639;51.308;5.624;2024-01-07T04:34:30;1.50;99.90
7196;DHT22;3639;51.308;5.624;2024-01-07T04:36:56;1.50;99.90
7196;DHT22;3639;51.308;5.624;2024-01-07T04:39:21;1.50;99.90
7196;DHT22;3639;51.308;5.624;2024-01-07T04:41:47;1.50;99.90
7196;DHT22;3639;51.308;5.624;2024-01-07T04:44:13;1.50;99.90
7196;DHT22;3639;51.308;5.624;2024-01-07T04:46:39;1.50;99.90
7196;DHT22;3639;51.308;5.624;2024-01-07T04:49:05;1.50;99.90
7196;DHT22;3639;51.308;5.624;2024-01-07T04:51:34;1.50;99.90
7196;DHT22;3639;51.308;5.624;2024-01-07T04:53:59;1.50;99.90
7196;DHT22;3639;51.308;5.624;2024-01-07T04:56:25;1.50;99.90
7196;DHT22;3639;51.308;5.624;2024-01-07T04:58:50;1.50;99.90
7196;DHT22;3639;51.308;5.624;2024-01-07T05:01:16;1.50;99.90
7196;DHT22;3639;51.308;5.624;2024-01-07T05:03:41;1.50;99.90
7196;DHT22;3639;51.308;5.624;2024-01-07T05:06:11;1.50;99.90
7196;DHT22;3639;51.308;5.624;2024-01-07T05:08:37;1.40;99.90
7196;DHT22;3639;51.308;5.624;2024-01-07T05:11:03;1.40;99.90
7196;DHT22;3639;51.308;5.624;2024-01-07T05:13:30;1.40;99.90
7196;DHT22;3639;51.308;5.624;2024-01-07T05:15:55;1.40;99.90
7196;DHT22;3639;51.308;5.624;2024-01-07T05:18:22;1.40;99.90
7196;DHT22;3639;51.308;5.624;2024-01-07T05:20:48;1.40;99.90
7196;DHT22;3639;51.308;5.624;2024-01-07T05:23:14;1.30;99.90
7196;DHT22;3639;51.308;5.624;2024-01-07T05:25:39;1.30;99.90
7196;DHT22;3639;51.308;5.624;2024-01-07T05:28:05;1.40;99.90
7196;DHT22;3639;51.308;5.624;2024-01-07T05:30:31;1.40;99.90
7196;DHT22;3639;51.308;5.624;2024-01-07T05:32:57;1.30;99.90
7196;DHT22;3639;51.308;5.624;2024-01-07T05:35:22;1.30;99.90
7196;DHT22;3639;51.308;5.624;2024-01-07T05:37:48;1.30;99.90
7196;DHT22;3639;51.308;5.624;2024-01-07T05:40:14;1.30;99.90
7196;DHT22;3639;51.308;5.624;2024-01-07T05:42:39;1.30;99.90
7196;DHT22;3639;51.308;5.624;2024-01-07T05:45:05;1.30;99.90
7196;DHT22;3639;51.308;5.624;2024-01-07T05:47:31;1.30;99.90
7196;DHT22;3639;51.308;5.624;2024-01-07T05:49:56;1.30;99.90
7196;DHT22;3639;51.308;5.624;2024-01-07T05:52:22;1.30;99.90
7196;DHT22;3639;51.308;5.624;2024-01-07T05:54:48;1.30;99.90
7196;DHT22;3639;51.308;5.624;2024-01-07T05:57:14;1.30;99.90
7196;DHT22;3639;51.308;5.624;2024-01-07T05:59:39;1.30;99.90
7196;DHT22;3639;51.308;5.624;2024-01-07T06:02:05;1.20;99.90
7196;DHT22;3639;51.308;5.624;2024-01-07T06:04:30;1.20;99.90
7196;DHT22;3639;51.308;5.624;2024-01-07T06:06:56;1.20;99.90
7196;DHT22;3639;51.308;5.624;2024-01-07T06:09:21;1.30;99.90
7196;DHT22;3639;51.308;5.624;2024-01-07T06:11:47;1.20;99.90
7196;DHT22;3639;51.308;5.624;2024-01-07T06:14:12;1.30;99.90
7196;DHT22;3639;51.308;5.624;2024-01-07T06:16:38;1.30;99.90
7196;DHT22;3639;51.308;5.624;2024-01-07T06:19:03;1.30;99.90
7196;DHT22;3639;51.308;5.624;2024-01-07T06:21:29;1.20;99.90
7196;DHT22;3639;51.308;5.624;2024-01-07T06:23:55;1.20;99.90
7196;DHT22;3639;51.308;5.624;2024-01-07T06:26:21;1.20;99.90
7196;DHT22;3639;51.308;5.624;2024-01-07T06:28:46;1.20;99.90
7196;DHT22;3639;51.308;5.624;2024-01-07T06:31:12;1.20;99.90
7196;DHT22;3639;51.308;5.624;2024-01-07T06:33:37;1.20;99.90
7196;DHT22;3639;51.308;5.624;2024-01-07T06:36:03;1.20;99.90
7196;DHT22;3639;51.308;5.624;2024-01-07T06:38:29;1.30;99.90
7196;DHT22;3639;51.308;5.624;2024-01-07T06:40:55;1.20;99.90
7196;DHT22;3639;51.308;5.624;2024-01-07T06:43:21;1.30;99.90
7196;DHT22;3639;51.308;5.624;2024-01-07T06:45:46;1.20;99.90
7196;DHT22;3639;51.308;5.624;2024-01-07T06:48:12;1.20;99.90
7196;DHT22;3639;51.308;5.624;2024-01-07T06:50:37;1.20;99.90
7196;DHT22;3639;51.308;5.624;2024-01-07T06:53:03;1.30;99.90
7196;DHT22;3639;51.308;5.624;2024-01-07T06:55:29;1.20;99.90
7196;DHT22;3639;51.308;5.624;2024-01-07T06:57:54;1.20;99.90
7196;DHT22;3639;51.308;5.624;2024-01-07T07:00:20;1.20;99.90
7196;DHT22;3639;51.308;5.624;2024-01-07T07:02:45;1.20;99.90
7196;DHT22;3639;51.308;5.624;2024-01-07T07:05:11;1.20;99.90
7196;DHT22;3639;51.308;5.624;2024-01-07T07:07:37;1.10;99.90
7196;DHT22;3639;51.308;5.624;2024-01-07T07:10:02;1.10;99.90
7196;DHT22;3639;51.308;5.624;2024-01-07T07:12:29;1.10;99.90
7196;DHT22;3639;51.308;5.624;2024-01-07T07:14:54;1.10;99.90
7196;DHT22;3639;51.308;5.624;2024-01-07T07:17:20;1.10;99.90
7196;DHT22;3639;51.308;5.624;2024-01-07T07:19:45;1.10;99.90
7196;DHT22;3639;51.308;5.624;2024-01-07T07:22:11;1.20;99.90
7196;DHT22;3639;51.308;5.624;2024-01-07T07:24:40;1.20;99.90
7196;DHT22;3639;51.308;5.624;2024-01-07T07:27:06;1.20;99.90
7196;DHT22;3639;51.308;5.624;2024-01-07T07:29:32;1.20;99.90
7196;DHT22;3639;51.308;5.624;2024-01-07T07:31:57;1.20;99.90
7196;DHT22;3639;51.308;5.624;2024-01-07T07:34:23;1.10;99.90
7196;DHT22;3639;51.308;5.624;2024-01-07T07:36:48;1.10;99.90
7196;DHT22;3639;51.308;5.624;2024-01-07T07:39:14;1.10;99.90
7196;DHT22;3639;51.308;5.624;2024-01-07T07:41:40;1.00;99.90
7196;DHT22;3639;51.308;5.624;2024-01-07T07:44:05;1.10;99.90
7196;DHT22;3639;51.308;5.624;2024-01-07T07:46:31;1.00;99.90
7196;DHT22;3639;51.308;5.624;2024-01-07T07:48:57;1.00;99.90
7196;DHT22;3639;51.308;5.624;2024-01-07T07:51:23;1.00;99.90
7196;DHT22;3639;51.308;5.624;2024-01-07T07:53:48;1.00;99.90
7196;DHT22;3639;51.308;5.624;2024-01-07T07:56:14;1.00;99.90
7196;DHT22;3639;51.308;5.624;2024-01-07T07:58:40;1.00;99.90
7196;DHT22;3639;51.308;5.624;2024-01-07T08:01:05;1.00;99.90
7196;DHT22;3639;51.308;5.624;2024-01-07T08:03:32;1.00;99.90
7196;DHT22;3639;51.308;5.624;2024-01-07T08:05:58;1.00;99.90
7196;DHT22;3639;51.308;5.624;2024-01-07T08:08:23;0.90;99.90
7196;DHT22;3639;51.308;5.624;2024-01-07T08:10:49;1.00;99.90
7196;DHT22;3639;51.308;5.624;2024-01-07T08:13:14;1.00;99.90
7196;DHT22;3639;51.308;5.624;2024-01-07T08:15:40;1.00;99.90
7196;DHT22;3639;51.308;5.624;2024-01-07T08:18:05;1.00;99.90
7196;DHT22;3639;51.308;5.624;2024-01-07T08:20:31;1.00;99.90
7196;DHT22;3639;51.308;5.624;2024-01-07T08:22:56;1.00;99.90
7196;DHT22;3639;51.308;5.624;2024-01-07T08:25:22;0.90;99.90
7196;DHT22;3639;51.308;5.624;2024-01-07T08:27:49;0.90;99.90
7196;DHT22;3639;51.308;5.624;2024-01-07T08:30:14;0.90;99.90
7196;DHT22;3639;51.308;5.624;2024-01-07T08:32:40;0.80;99.90
7196;DHT22;3639;51.308;5.624;2024-01-07T08:35:07;0.80;99.90
7196;DHT22;3639;51.308;5.624;2024-01-07T08:37:32;0.80;99.90
7196;DHT22;3639;51.308;5.624;2024-01-07T08:39:58;0.70;99.90
7196;DHT22;3639;51.308;5.624;2024-01-07T08:42:24;0.80;99.90
7196;DHT22;3639;51.308;5.624;2024-01-07T08:44:50;0.80;99.90
7196;DHT22;3639;51.308;5.624;2024-01-07T08:47:16;0.80;99.90
7196;DHT22;3639;51.308;5.624;2024-01-07T08:49:41;0.80;99.90
7196;DHT22;3639;51.308;5.624;2024-01-07T08:52:07;0.80;99.90
7196;DHT22;3639;51.308;5.624;2024-01-07T08:54:32;0.80;99.90
7196;DHT22;3639;51.308;5.624;2024-01-07T08:56:58;0.80;99.90
7196;DHT22;3639;51.308;5.624;2024-01-07T08:59:24;0.80;99.90
7196;DHT22;3639;51.308;5.624;2024-01-07T09:01:50;0.90;99.90
7196;DHT22;3639;51.308;5.624;2024-01-07T09:04:15;0.80;99.90
7196;DHT22;3639;51.308;5.624;2024-01-07T09:06:46;0.80;99.90
7196;DHT22;3639;51.308;5.624;2024-01-07T09:09:11;0.80;99.90
7196;DHT22;3639;51.308;5.624;2024-01-07T09:11:37;0.80;99.90
7196;DHT22;3639;51.308;5.624;2024-01-07T09:14:03;0.80;99.90
7196;DHT22;3639;51.308;5.624;2024-01-07T09:16:29;0.80;99.90
7196;DHT22;3639;51.308;5.624;2024-01-07T09:18:55;0.80;99.90
7196;DHT22;3639;51.308;5.624;2024-01-07T09:21:20;0.80;99.90
7196;DHT22;3639;51.308;5.624;2024-01-07T09:23:46;0.80;99.90
7196;DHT22;3639;51.308;5.624;2024-01-07T09:26:11;0.80;99.90
7196;DHT22;3639;51.308;5.624;2024-01-07T09:28:37;0.80;99.90
7196;DHT22;3639;51.308;5.624;2024-01-07T09:31:03;0.80;99.90
7196;DHT22;3639;51.308;5.624;2024-01-07T09:33:29;0.90;99.90
7196;DHT22;3639;51.308;5.624;2024-01-07T09:35:54;0.90;99.90
7196;DHT22;3639;51.308;5.624;2024-01-07T09:38:20;0.90;99.90
7196;DHT22;3639;51.308;5.624;2024-01-07T09:40:46;0.80;99.90
7196;DHT22;3639;51.308;5.624;2024-01-07T09:43:12;0.80;99.90
7196;DHT22;3639;51.308;5.624;2024-01-07T09:45:39;0.80;99.90
7196;DHT22;3639;51.308;5.624;2024-01-07T09:48:06;0.80;99.90
7196;DHT22;3639;51.308;5.624;2024-01-07T09:50:32;0.80;99.90
7196;DHT22;3639;51.308;5.624;2024-01-07T09:52:58;0.70;99.90
7196;DHT22;3639;51.308;5.624;2024-01-07T09:55:33;0.80;99.90
7196;DHT22;3639;51.308;5.624;2024-01-07T09:57:58;0.70;99.90
7196;DHT22;3639;51.308;5.624;2024-01-07T10:00:26;0.80;99.90
7196;DHT22;3639;51.308;5.624;2024-01-07T10:02:53;0.80;99.90
7196;DHT22;3639;51.308;5.624;2024-01-07T10:05:28;0.80;99.90
7196;DHT22;3639;51.308;5.624;2024-01-07T10:07:53;0.80;99.90
7196;DHT22;3639;51.308;5.624;2024-01-07T10:10:21;0.80;99.90
7196;DHT22;3639;51.308;5.624;2024-01-07T10:12:47;0.80;99.90
7196;DHT22;3639;51.308;5.624;2024-01-07T10:15:13;0.80;99.90
7196;DHT22;3639;51.308;5.624;2024-01-07T10:17:41;0.70;99.90
7196;DHT22;3639;51.308;5.624;2024-01-07T10:20:08;0.80;99.90
7196;DHT22;3639;51.308;5.624;2024-01-07T10:22:37;0.80;99.90
7196;DHT22;3639;51.308;5.624;2024-01-07T10:25:06;0.80;99.90
7196;DHT22;3639;51.308;5.624;2024-01-07T10:27:36;0.70;99.90
7196;DHT22;3639;51.308;5.624;2024-01-07T10:30:03;0.70;99.90
7196;DHT22;3639;51.308;5.624;2024-01-07T10:32:28;0.80;99.90
7196;DHT22;3639;51.308;5.624;2024-01-07T10:35:02;0.70;99.90
7196;DHT22;3639;51.308;5.624;2024-01-07T10:37:29;0.70;99.90
7196;DHT22;3639;51.308;5.624;2024-01-07T10:39:59;0.70;99.90
7196;DHT22;3639;51.308;5.624;2024-01-07T10:42:31;0.80;99.90
7196;DHT22;3639;51.308;5.624;2024-01-07T10:45:00;0.80;99.90
7196;DHT22;3639;51.308;5.624;2024-01-07T10:47:30;0.80;99.90
7196;DHT22;3639;51.308;5.624;2024-01-07T10:50:02;0.80;99.90
7196;DHT22;3639;51.308;5.624;2024-01-07T10:52:28;0.80;99.90
7196;DHT22;3639;51.308;5.624;2024-01-07T10:55:03;0.80;99.90
7196;DHT22;3639;51.308;5.624;2024-01-07T11:00:06;0.80;99.90
7196;DHT22;3639;51.308;5.624;2024-01-07T11:02:40;0.80;99.90
7196;DHT22;3639;51.308;5.624;2024-01-07T11:05:20;0.90;99.90
7196;DHT22;3639;51.308;5.624;2024-01-07T11:08:05;0.80;99.90
7196;DHT22;3639;51.308;5.624;2024-01-07T11:10:38;0.80;99.90
7196;DHT22;3639;51.308;5.624;2024-01-07T11:13:05;0.90;99.90
7196;DHT22;3639;51.308;5.624;2024-01-07T11:15:51;0.90;99.90
7196;DHT22;3639;51.308;5.624;2024-01-07T11:18:20;0.90;99.90
7196;DHT22;3639;51.308;5.624;2024-01-07T11:20:46;0.80;99.90
7196;DHT22;3639;51.308;5.624;2024-01-07T11:23:32;0.90;99.90
7196;DHT22;3639;51.308;5.624;2024-01-07T11:25:59;0.90;99.90
7196;DHT22;3639;51.308;5.624;2024-01-07T11:28:51;0.90;99.90
7196;DHT22;3639;51.308;5.624;2024-01-07T11:31:19;0.90;99.90
7196;DHT22;3639;51.308;5.624;2024-01-07T11:33:46;0.90;99.90
7196;DHT22;3639;51.308;5.624;2024-01-07T11:36:13;1.00;99.90
7196;DHT22;3639;51.308;5.624;2024-01-07T11:38:44;1.00;99.90
7196;DHT22;3639;51.308;5.624;2024-01-07T11:41:14;0.90;99.90
7196;DHT22;3639;51.308;5.624;2024-01-07T11:44:00;0.90;99.90
7196;DHT22;3639;51.308;5.624;2024-01-07T11:46:27;1.00;99.90
7196;DHT22;3639;51.308;5.624;2024-01-07T11:48:54;1.10;99.90
7196;DHT22;3639;51.308;5.624;2024-01-07T11:51:31;1.00;99.90
7196;DHT22;3639;51.308;5.624;2024-01-07T11:54:00;1.00;99.90
7196;DHT22;3639;51.308;5.624;2024-01-07T11:56:27;0.90;99.90
7196;DHT22;3639;51.308;5.624;2024-01-07T11:58:53;0.90;99.90
7196;DHT22;3639;51.308;5.624;2024-01-07T12:01:19;0.90;99.90
7196;DHT22;3639;51.308;5.624;2024-01-07T12:03:45;0.90;99.90
7196;DHT22;3639;51.308;5.624;2024-01-07T12:06:11;0.90;99.90
7196;DHT22;3639;51.308;5.624;2024-01-07T12:08:40;0.90;99.90
7196;DHT22;3639;51.308;5.624;2024-01-07T12:11:06;0.90;99.90
7196;DHT22;3639;51.308;5.624;2024-01-07T12:13:32;0.90;99.90
7196;DHT22;3639;51.308;5.624;2024-01-07T12:15:58;0.90;99.90
7196;DHT22;3639;51.308;5.624;2024-01-07T12:18:23;0.90;99.90
7196;DHT22;3639;51.308;5.624;2024-01-07T12:20:55;0.90;99.90
7196;DHT22;3639;51.308;5.624;2024-01-07T12:23:21;0.90;99.90
7196;DHT22;3639;51.308;5.624;2024-01-07T12:25:47;0.80;99.90
7196;DHT22;3639;51.308;5.624;2024-01-07T12:28:13;0.80;99.90
7196;DHT22;3639;51.308;5.624;2024-01-07T12:30:39;0.80;99.90
7196;DHT22;3639;51.308;5.624;2024-01-07T12:33:07;0.80;99.90
7196;DHT22;3639;51.308;5.624;2024-01-07T12:35:34;0.90;99.90
7196;DHT22;3639;51.308;5.624;2024-01-07T12:38:00;0.90;99.90
7196;DHT22;3639;51.308;5.624;2024-01-07T12:40:25;0.90;99.90
7196;DHT22;3639;51.308;5.624;2024-01-07T12:42:52;0.90;99.90
7196;DHT22;3639;51.308;5.624;2024-01-07T12:45:18;0.90;99.90
7196;DHT22;3639;51.308;5.624;2024-01-07T12:47:44;0.90;99.90
7196;DHT22;3639;51.308;5.624;2024-01-07T12:50:10;0.90;99.90
7196;DHT22;3639;51.308;5.624;2024-01-07T12:52:37;0.90;99.90
7196;DHT22;3639;51.308;5.624;2024-01-07T12:55:04;0.90;99.90
7196;DHT22;3639;51.308;5.624;2024-01-07T12:57:29;0.90;99.90
7196;DHT22;3639;51.308;5.624;2024-01-07T12:59:55;0.90;99.90
7196;DHT22;3639;51.308;5.624;2024-01-07T13:02:21;0.90;99.90
7196;DHT22;3639;51.308;5.624;2024-01-07T13:04:46;0.80;99.90
7196;DHT22;3639;51.308;5.624;2024-01-07T13:07:12;0.80;99.90
7196;DHT22;3639;51.308;5.624;2024-01-07T13:09:37;0.80;99.90
7196;DHT22;3639;51.308;5.624;2024-01-07T13:12:03;0.70;99.90
7196;DHT22;3639;51.308;5.624;2024-01-07T13:14:29;0.70;99.90
7196;DHT22;3639;51.308;5.624;2024-01-07T13:16:55;0.80;99.90
7196;DHT22;3639;51.308;5.624;2024-01-07T13:19:21;0.80;99.90
7196;DHT22;3639;51.308;5.624;2024-01-07T13:21:46;0.80;99.90
7196;DHT22;3639;51.308;5.624;2024-01-07T13:24:12;0.80;99.90
7196;DHT22;3639;51.308;5.624;2024-01-07T13:26:38;0.80;99.90
7196;DHT22;3639;51.308;5.624;2024-01-07T13:29:03;0.70;99.90
7196;DHT22;3639;51.308;5.624;2024-01-07T13:31:29;0.80;99.90
7196;DHT22;3639;51.308;5.624;2024-01-07T13:33:55;0.70;99.90
7196;DHT22;3639;51.308;5.624;2024-01-07T13:36:20;0.70;99.90
7196;DHT22;3639;51.308;5.624;2024-01-07T13:38:46;0.70;99.90
7196;DHT22;3639;51.308;5.624;2024-01-07T13:41:15;0.80;99.90
7196;DHT22;3639;51.308;5.624;2024-01-07T13:43:41;0.80;99.90
7196;DHT22;3639;51.308;5.624;2024-01-07T13:46:07;0.80;99.90
7196;DHT22;3639;51.308;5.624;2024-01-07T13:48:32;0.80;99.90
7196;DHT22;3639;51.308;5.624;2024-01-07T13:50:58;0.80;99.90
7196;DHT22;3639;51.308;5.624;2024-01-07T13:53:23;0.70;99.90
7196;DHT22;3639;51.308;5.624;2024-01-07T13:55:49;0.70;99.90
7196;DHT22;3639;51.308;5.624;2024-01-07T13:58:15;0.70;99.90
7196;DHT22;3639;51.308;5.624;2024-01-07T14:00:40;0.70;99.90
7196;DHT22;3639;51.308;5.624;2024-01-07T14:03:06;0.70;99.90
7196;DHT22;3639;51.308;5.624;2024-01-07T14:05:32;0.60;99.90
7196;DHT22;3639;51.308;5.624;2024-01-07T14:07:58;0.50;99.90
7196;DHT22;3639;51.308;5.624;2024-01-07T14:10:23;0.50;99.90
7196;DHT22;3639;51.308;5.624;2024-01-07T14:12:49;0.40;99.90
7196;DHT22;3639;51.308;5.624;2024-01-07T14:15:15;0.30;99.90
7196;DHT22;3639;51.308;5.624;2024-01-07T14:17:42;0.30;99.90
7196;DHT22;3639;51.308;5.624;2024-01-07T14:20:08;0.20;99.90
7196;DHT22;3639;51.308;5.624;2024-01-07T14:22:35;0.20;99.90
7196;DHT22;3639;51.308;5.624;2024-01-07T14:25:02;0.20;99.90
7196;DHT22;3639;51.308;5.624;2024-01-07T14:27:28;0.20;99.90
7196;DHT22;3639;51.308;5.624;2024-01-07T14:29:54;0.20;99.90
7196;DHT22;3639;51.308;5.624;2024-01-07T14:32:21;0.20;99.90
7196;DHT22;3639;51.308;5.624;2024-01-07T14:34:47;0.20;99.90
7196;DHT22;3639;51.308;5.624;2024-01-07T14:37:15;0.20;99.90
7196;DHT22;3639;51.308;5.624;2024-01-07T14:39:40;0.20;99.90
7196;DHT22;3639;51.308;5.624;2024-01-07T14:42:06;0.30;99.90
7196;DHT22;3639;51.308;5.624;2024-01-07T14:44:32;0.30;99.90
7196;DHT22;3639;51.308;5.624;2024-01-07T14:46:58;0.30;99.90
7196;DHT22;3639;51.308;5.624;2024-01-07T14:49:24;0.30;99.90
7196;DHT22;3639;51.308;5.624;2024-01-07T14:51:50;0.30;99.90
7196;DHT22;3639;51.308;5.624;2024-01-07T14:54:15;0.40;99.90
7196;DHT22;3639;51.308;5.624;2024-01-07T14:56:41;0.40;99.90
7196;DHT22;3639;51.308;5.624;2024-01-07T14:59:08;0.40;99.90
7196;DHT22;3639;51.308;5.624;2024-01-07T15:01:33;0.40;99.90
7196;DHT22;3639;51.308;5.624;2024-01-07T15:03:59;0.30;99.90
7196;DHT22;3639;51.308;5.624;2024-01-07T15:06:25;0.30;99.90
7196;DHT22;3639;51.308;5.624;2024-01-07T15:08:50;0.30;99.90
7196;DHT22;3639;51.308;5.624;2024-01-07T15:11:16;0.30;99.90
7196;DHT22;3639;51.308;5.624;2024-01-07T15:13:42;0.30;99.90
7196;DHT22;3639;51.308;5.624;2024-01-07T15:16:09;0.30;99.90
7196;DHT22;3639;51.308;5.624;2024-01-07T15:18:35;0.40;99.90
7196;DHT22;3639;51.308;5.624;2024-01-07T15:21:00;0.30;99.90
7196;DHT22;3639;51.308;5.624;2024-01-07T15:23:28;0.40;99.90
7196;DHT22;3639;51.308;5.624;2024-01-07T15:25:54;0.30;99.90
7196;DHT22;3639;51.308;5.624;2024-01-07T15:28:20;0.30;99.90
7196;DHT22;3639;51.308;5.624;2024-01-07T15:30:45;0.30;99.90
7196;DHT22;3639;51.308;5.624;2024-01-07T15:33:12;0.30;99.90
7196;DHT22;3639;51.308;5.624;2024-01-07T15:35:38;0.20;99.90
7196;DHT22;3639;51.308;5.624;2024-01-07T15:38:04;0.20;99.90
7196;DHT22;3639;51.308;5.624;2024-01-07T15:40:32;0.20;99.90
7196;DHT22;3639;51.308;5.624;2024-01-07T15:42:58;0.20;99.90
7196;DHT22;3639;51.308;5.624;2024-01-07T15:45:25;0.20;99.90
7196;DHT22;3639;51.308;5.624;2024-01-07T15:47:50;0.20;99.90
7196;DHT22;3639;51.308;5.624;2024-01-07T15:50:16;0.10;99.90
7196;DHT22;3639;51.308;5.624;2024-01-07T15:52:42;0.10;99.90
7196;DHT22;3639;51.308;5.624;2024-01-07T15:55:12;0.10;99.90
7196;DHT22;3639;51.308;5.624;2024-01-07T15:57:38;0.10;99.90
7196;DHT22;3639;51.308;5.624;2024-01-07T16:00:04;0.10;99.90
7196;DHT22;3639;51.308;5.624;2024-01-07T16:02:30;0.10;99.90
7196;DHT22;3639;51.308;5.624;2024-01-07T16:04:56;0.00;99.90
7196;DHT22;3639;51.308;5.624;2024-01-07T16:07:21;0.00;99.90
7196;DHT22;3639;51.308;5.624;2024-01-07T16:09:47;0.00;99.90
7196;DHT22;3639;51.308;5.624;2024-01-07T16:12:12;0.00;99.90
7196;DHT22;3639;51.308;5.624;2024-01-07T16:14:40;0.00;99.90